createdAt,value
2022-12-28T00:02:13.184Z,72.16
2022-12-28T00:04:40.705Z,72.22
2022-12-28T00:07:08.247Z,72.54
2022-12-28T00:09:35.722Z,72.01
2022-12-28T00:12:03.361Z,72.25
2022-12-28T00:14:30.914Z,71.93
2022-12-28T00:16:58.479Z,72.05
2022-12-28T00:19:26.088Z,71.84
2022-12-28T00:21:54.235Z,72.17
2022-12-28T00:24:24.479Z,72.14
2022-12-28T00:26:52.576Z,71.74
2022-12-28T00:29:20.288Z,71.97
2022-12-28T00:31:47.833Z,71.96
2022-12-28T00:34:15.514Z,71.69
2022-12-28T00:37:10.259Z,71.96
2022-12-28T00:39:30.846Z,71.65
2022-12-28T00:41:58.289Z,72.12
2022-12-28T00:44:25.879Z,71.82
2022-12-28T00:46:53.351Z,71.65
2022-12-28T00:49:21.029Z,71.96
2022-12-28T00:51:48.546Z,71.65
2022-12-28T00:54:16.177Z,71.73
2022-12-28T00:56:43.671Z,71.67
2022-12-28T00:59:11.253Z,71.84
2022-12-28T01:01:39.031Z,71.67
2022-12-28T01:04:06.551Z,71.73
2022-12-28T01:06:34.089Z,71.68
2022-12-28T01:09:04.234Z,72.06
2022-12-28T01:11:32.406Z,71.68
2022-12-28T01:14:01.563Z,71.34
2022-12-28T01:16:35.055Z,71.50
2022-12-28T01:19:06.471Z,71.80
2022-12-28T01:21:35.775Z,71.59
2022-12-28T01:24:06.038Z,71.39
2022-12-28T01:26:34.088Z,71.06
2022-12-28T01:29:02.421Z,71.23
2022-12-28T01:31:33.158Z,71.51
2022-12-28T01:34:01.672Z,71.24
2022-12-28T01:36:31.663Z,71.76
2022-12-28T01:39:01.524Z,71.48
2022-12-28T01:41:30.862Z,71.37
2022-12-28T01:43:58.326Z,71.66
2022-12-28T01:46:35.421Z,71.92
2022-12-28T01:49:17.534Z,71.60
2022-12-28T01:52:02.282Z,71.48
2022-12-28T01:54:36.587Z,71.45
2022-12-28T01:57:04.514Z,71.30
2022-12-28T01:59:36.493Z,71.41
2022-12-28T02:02:04.344Z,71.51
2022-12-28T02:04:32.250Z,71.07
2022-12-28T02:06:59.745Z,71.12
2022-12-28T02:09:33.093Z,71.10
2022-12-28T02:12:02.954Z,70.75
2022-12-28T02:14:31.059Z,70.63
2022-12-28T02:16:58.695Z,70.87
2022-12-28T02:19:43.496Z,71.13
2022-12-28T02:22:16.757Z,70.78
2022-12-28T02:25:11.339Z,70.33
2022-12-28T02:28:08.292Z,70.47
2022-12-28T02:30:54.388Z,70.43
2022-12-28T02:33:41.595Z,70.36
2022-12-28T02:36:22.626Z,70.41
2022-12-28T02:38:58.569Z,70.40
2022-12-28T02:41:26.683Z,69.98
2022-12-28T02:43:55.201Z,69.97
2022-12-28T02:46:46.280Z,70.23
2022-12-28T02:49:41.395Z,70.34
2022-12-28T02:52:21.087Z,70.11
2022-12-28T02:55:20.918Z,70.01
2022-12-28T02:58:19.114Z,69.96
2022-12-28T03:00:49.750Z,69.92
2022-12-28T03:03:26.260Z,70.13
2022-12-28T03:06:33.559Z,69.71
2022-12-28T03:09:24.406Z,69.83
2022-12-28T03:12:00.487Z,69.65
2022-12-28T03:14:42.695Z,69.62
2022-12-28T03:17:29.607Z,69.51
2022-12-28T03:20:21.731Z,69.78
2022-12-28T03:23:09.413Z,69.44
2022-12-28T03:26:01.086Z,69.59
2022-12-28T03:28:56.485Z,69.00
2022-12-28T03:31:28.409Z,69.34
2022-12-28T03:34:07.651Z,69.02
2022-12-28T03:36:58.628Z,69.21
2022-12-28T03:39:42.555Z,69.74
2022-12-28T03:42:35.760Z,69.05
2022-12-28T03:45:16.621Z,68.87
2022-12-28T03:48:05.828Z,68.60
2022-12-28T03:50:41.769Z,69.37
2022-12-28T03:53:10.192Z,69.19
2022-12-28T03:55:40.629Z,69.16
2022-12-28T03:58:08.527Z,69.34
2022-12-28T04:00:37.631Z,69.50
2022-12-28T04:03:05.333Z,69.12
2022-12-28T04:05:35.619Z,69.62
2022-12-28T04:08:03.178Z,69.45
2022-12-28T04:10:30.829Z,69.07
2022-12-28T04:12:58.964Z,69.16
2022-12-28T04:16:08.046Z,69.13
2022-12-28T04:18:37.230Z,68.82
2022-12-28T04:21:05.014Z,69.15
2022-12-28T04:23:32.719Z,69.24
2022-12-28T04:26:17.312Z,69.29
2022-12-28T04:28:46.567Z,69.69
2022-12-28T04:31:33.218Z,69.61
2022-12-28T04:34:07.504Z,69.98
2022-12-28T04:36:39.833Z,69.41
2022-12-28T04:39:12.087Z,69.84
2022-12-28T04:41:40.353Z,69.69
2022-12-28T04:44:07.881Z,69.90
2022-12-28T04:46:35.504Z,69.68
2022-12-28T04:49:03.382Z,69.72
2022-12-28T04:51:31.869Z,70.15
2022-12-28T04:53:59.429Z,69.57
2022-12-28T04:56:27.544Z,69.86
2022-12-28T04:59:00.145Z,69.98
2022-12-28T05:01:28.534Z,69.83
2022-12-28T05:03:59.538Z,69.72
2022-12-28T05:06:29.464Z,69.27
2022-12-28T05:08:58.168Z,69.65
2022-12-28T05:11:28.353Z,69.48
2022-12-28T05:13:56.987Z,69.82
2022-12-28T05:16:28.446Z,69.44
2022-12-28T05:18:57.772Z,69.47
2022-12-28T05:21:27.403Z,69.60
2022-12-28T05:23:55.782Z,69.66
2022-12-28T05:26:26.588Z,69.23
2022-12-28T05:28:54.917Z,69.40
2022-12-28T05:31:23.640Z,69.14
2022-12-28T05:33:51.754Z,69.51
2022-12-28T05:36:24.791Z,69.41
2022-12-28T05:38:53.693Z,69.43
2022-12-28T05:41:22.847Z,68.96
2022-12-28T05:43:51.152Z,69.06
2022-12-28T05:46:26.730Z,68.84
2022-12-28T05:48:57.858Z,68.70
2022-12-28T05:51:28.495Z,69.28
2022-12-28T05:53:56.539Z,69.48
2022-12-28T05:56:26.883Z,69.29
2022-12-28T05:59:00.251Z,69.02
2022-12-28T06:01:36.476Z,68.81
2022-12-28T06:04:11.211Z,69.08
2022-12-28T06:06:38.768Z,68.94
2022-12-28T06:09:06.350Z,69.08
2022-12-28T06:11:34.002Z,69.19
2022-12-28T06:14:03.802Z,69.06
2022-12-28T06:16:34.165Z,68.83
2022-12-28T06:19:05.966Z,69.18
2022-12-28T06:21:35.778Z,68.95
2022-12-28T06:24:04.914Z,68.95
2022-12-28T06:26:34.299Z,68.87
2022-12-28T06:29:02.292Z,69.38
2022-12-28T06:31:32.448Z,69.07
2022-12-28T06:34:02.080Z,68.86
2022-12-28T06:36:35.889Z,69.17
2022-12-28T06:39:05.836Z,69.23
2022-12-28T06:41:34.125Z,68.96
2022-12-28T06:44:02.108Z,69.00
2022-12-28T06:46:30.705Z,69.28
2022-12-28T06:48:58.981Z,69.23
2022-12-28T06:51:36.369Z,69.02
2022-12-28T06:54:04.793Z,69.04
2022-12-28T06:56:34.630Z,68.74
2022-12-28T06:59:04.868Z,68.86
2022-12-28T07:01:37.964Z,69.38
2022-12-28T07:04:07.614Z,68.79
2022-12-28T07:06:41.623Z,69.09
2022-12-28T07:09:13.562Z,69.00
2022-12-28T07:11:41.967Z,68.87
2022-12-28T07:14:09.484Z,68.56
2022-12-28T07:19:03.420Z,68.27
2022-12-28T07:21:36.787Z,67.71
2022-12-28T07:24:05.832Z,67.92
2022-12-28T07:26:35.719Z,67.82
2022-12-28T07:29:05.231Z,67.82
2022-12-28T07:31:43.781Z,67.38
2022-12-28T07:34:16.278Z,67.40
2022-12-28T07:36:44.252Z,67.25
2022-12-28T07:39:12.870Z,67.36
2022-12-28T07:41:40.579Z,67.47
2022-12-28T07:44:08.198Z,67.16
2022-12-28T07:46:37.336Z,67.43
2022-12-28T07:49:05.102Z,67.07
2022-12-28T07:51:35.367Z,67.08
2022-12-28T07:54:04.192Z,67.04
2022-12-28T07:59:02.112Z,67.09
2022-12-28T08:01:32.504Z,67.17
2022-12-28T08:04:03.101Z,67.18
2022-12-28T08:06:33.608Z,67.32
2022-12-28T08:09:01.745Z,67.07
2022-12-28T08:11:32.002Z,66.81
2022-12-28T08:14:00.335Z,66.98
2022-12-28T08:16:31.652Z,67.28
2022-12-28T08:19:00.073Z,67.08
2022-12-28T08:21:30.477Z,67.31
2022-12-28T08:23:59.124Z,66.94
2022-12-28T08:26:35.653Z,66.91
2022-12-28T08:29:06.878Z,66.81
2022-12-28T08:31:40.334Z,66.67
2022-12-28T08:34:10.638Z,66.57
2022-12-28T08:36:38.971Z,67.14
2022-12-28T08:39:06.934Z,67.12
2022-12-28T08:41:34.703Z,66.63
2022-12-28T08:44:02.699Z,67.01
2022-12-28T08:46:33.046Z,66.68
2022-12-28T08:49:01.571Z,66.78
2022-12-28T08:51:35.942Z,66.79
2022-12-28T08:54:04.187Z,66.82
2022-12-28T08:56:37.990Z,66.53
2022-12-28T08:59:06.166Z,66.08
2022-12-28T09:01:43.221Z,66.33
2022-12-28T09:04:20.585Z,66.21
2022-12-28T09:06:49.237Z,65.88
2022-12-28T09:09:19.636Z,66.32
2022-12-28T09:11:48.621Z,65.89
2022-12-28T09:14:23.303Z,65.96
2022-12-28T09:16:53.827Z,66.13
2022-12-28T09:19:22.035Z,66.20
2022-12-28T09:21:52.718Z,65.94
2022-12-28T09:24:20.516Z,65.95
2022-12-28T09:26:48.874Z,66.09
2022-12-28T09:29:16.625Z,66.33
2022-12-28T09:31:44.446Z,66.63
2022-12-28T09:37:01.164Z,66.71
2022-12-28T09:39:29.201Z,66.64
2022-12-28T09:42:28.243Z,66.57
2022-12-28T09:45:09.270Z,66.63
2022-12-28T09:47:55.315Z,66.79
2022-12-28T09:50:30.321Z,66.99
2022-12-28T09:53:26.846Z,67.37
2022-12-28T09:56:18.650Z,66.95
2022-12-28T09:58:48.173Z,66.90
2022-12-28T10:01:18.957Z,66.88
2022-12-28T10:03:47.870Z,66.78
2022-12-28T10:06:25.195Z,66.97
2022-12-28T10:08:56.382Z,66.84
2022-12-28T10:11:27.966Z,67.20
2022-12-28T10:13:58.702Z,67.21
2022-12-28T10:16:32.649Z,66.95
2022-12-28T10:19:01.471Z,67.09
2022-12-28T10:21:34.284Z,67.07
2022-12-28T10:26:58.130Z,67.64
2022-12-28T10:29:34.395Z,67.35
2022-12-28T10:32:14.615Z,67.73
2022-12-28T10:35:02.084Z,67.53
2022-12-28T10:37:35.021Z,67.61
2022-12-28T10:40:25.859Z,67.90
2022-12-28T10:42:55.742Z,67.79
2022-12-28T10:45:35.189Z,67.55
2022-12-28T10:48:08.482Z,67.60
2022-12-28T10:50:54.718Z,67.67
2022-12-28T10:53:40.448Z,67.56
2022-12-28T10:56:13.749Z,67.85
2022-12-28T10:58:47.994Z,67.91
2022-12-28T11:01:17.762Z,67.46
2022-12-28T11:03:57.463Z,67.69
2022-12-28T11:06:31.326Z,67.73
2022-12-28T11:09:07.343Z,67.94
2022-12-28T11:11:35.110Z,67.53
2022-12-28T11:14:11.148Z,67.59
2022-12-28T11:16:41.069Z,67.51
2022-12-28T11:19:09.144Z,67.51
2022-12-28T11:21:37.270Z,67.84
2022-12-28T11:24:05.452Z,68.04
2022-12-28T11:26:33.939Z,67.79
2022-12-28T11:29:02.307Z,67.88
2022-12-28T11:31:33.654Z,68.13
2022-12-28T11:34:05.299Z,67.90
2022-12-28T11:36:39.721Z,68.17
2022-12-28T11:39:25.283Z,68.23
2022-12-28T11:42:28.189Z,67.87
2022-12-28T11:44:45.184Z,67.25
2022-12-28T11:47:27.957Z,68.13
2022-12-28T11:50:15.866Z,67.92
2022-12-28T11:52:50.092Z,67.79
2022-12-28T11:55:36.964Z,68.11
2022-12-28T11:58:30.520Z,68.26
2022-12-28T12:01:00.233Z,67.60
2022-12-28T12:04:12.592Z,67.92
2022-12-28T12:06:47.139Z,67.62
2022-12-28T12:09:28.317Z,67.75
2022-12-28T12:12:04.006Z,67.83
2022-12-28T12:14:38.249Z,67.92
2022-12-28T12:17:28.000Z,67.69
2022-12-28T12:20:43.515Z,68.15
2022-12-28T12:23:39.075Z,68.22
2022-12-28T12:26:38.230Z,67.75
2022-12-28T12:29:18.259Z,68.30
2022-12-28T12:31:57.638Z,68.00
2022-12-28T12:34:51.008Z,68.34
2022-12-28T12:37:19.947Z,67.86
2022-12-28T12:40:25.782Z,68.31
2022-12-28T12:43:07.366Z,68.35
2022-12-28T12:45:37.493Z,68.04
2022-12-28T12:48:10.718Z,68.01
2022-12-28T12:50:55.236Z,67.91
2022-12-28T12:53:47.974Z,67.98
2022-12-28T12:56:34.800Z,68.02
2022-12-28T12:59:35.971Z,68.21
2022-12-28T13:02:12.497Z,67.85
2022-12-28T13:04:42.709Z,67.94
2022-12-28T13:07:27.781Z,68.93
2022-12-28T13:10:02.353Z,68.44
2022-12-28T13:12:30.957Z,68.25
2022-12-28T13:15:02.889Z,68.19
2022-12-28T13:17:32.564Z,68.27
2022-12-28T13:20:19.981Z,68.42
2022-12-28T13:22:49.046Z,68.47
2022-12-28T13:25:30.393Z,68.29
2022-12-28T13:28:01.122Z,68.28
2022-12-28T13:30:30.096Z,68.31
2022-12-28T13:33:00.099Z,68.24
2022-12-28T13:35:32.946Z,68.48
2022-12-28T13:38:09.269Z,68.57
2022-12-28T13:40:39.238Z,68.24
2022-12-28T13:43:21.654Z,68.12
2022-12-28T13:45:55.608Z,68.31
2022-12-28T13:48:24.481Z,68.24
2022-12-28T13:50:53.515Z,68.14
2022-12-28T13:53:25.597Z,68.06
2022-12-28T13:55:56.379Z,67.85
2022-12-28T13:58:35.517Z,67.94
2022-12-28T14:01:07.481Z,68.02
2022-12-28T14:03:41.403Z,67.79
2022-12-28T14:06:10.766Z,67.63
2022-12-28T14:08:40.021Z,68.07
2022-12-28T14:11:08.919Z,68.30
2022-12-28T14:13:37.496Z,68.22
2022-12-28T14:16:06.406Z,68.15
2022-12-28T14:18:34.637Z,68.44
2022-12-28T14:21:04.274Z,68.23
2022-12-28T14:23:37.448Z,68.37
2022-12-28T14:26:09.384Z,68.27
2022-12-28T14:28:43.617Z,68.69
2022-12-28T14:31:14.221Z,68.64
2022-12-28T14:34:03.036Z,68.65
2022-12-28T14:36:34.154Z,68.43
2022-12-28T14:39:04.936Z,68.69
2022-12-28T14:41:45.690Z,68.45
2022-12-28T14:44:21.363Z,68.81
2022-12-28T14:46:54.427Z,68.49
2022-12-28T14:49:31.248Z,68.72
2022-12-28T14:52:09.750Z,68.61
2022-12-28T14:54:52.965Z,68.43
2022-12-28T14:57:44.337Z,68.05
2022-12-28T15:00:22.641Z,68.22
2022-12-28T15:02:50.551Z,68.06
2022-12-28T15:05:38.619Z,68.22
2022-12-28T15:08:07.016Z,68.18
2022-12-28T15:10:40.304Z,68.04
2022-12-28T15:13:08.356Z,67.91
2022-12-28T15:15:35.859Z,67.86
2022-12-28T15:18:04.147Z,68.10
2022-12-28T15:20:32.069Z,67.69
2022-12-28T15:22:59.556Z,67.96
2022-12-28T15:25:27.420Z,67.57
2022-12-28T15:27:54.974Z,67.96
2022-12-28T15:30:27.390Z,67.73
2022-12-28T15:32:56.831Z,67.46
2022-12-28T15:35:25.006Z,67.67
2022-12-28T15:37:52.555Z,67.61
2022-12-28T15:40:20.066Z,67.83
2022-12-28T15:42:47.719Z,67.95
2022-12-28T15:45:15.855Z,67.77
2022-12-28T15:47:44.377Z,67.62
2022-12-28T15:50:12.345Z,67.82
2022-12-28T15:52:39.923Z,67.61
2022-12-28T15:55:07.863Z,67.81
2022-12-28T15:57:35.438Z,67.50
2022-12-28T16:00:04.100Z,67.92
2022-12-28T16:02:33.734Z,67.80
2022-12-28T16:05:01.326Z,68.13
2022-12-28T16:07:30.666Z,68.02
2022-12-28T16:09:58.271Z,67.92
2022-12-28T16:12:25.718Z,68.25
2022-12-28T16:14:53.299Z,68.32
2022-12-28T16:17:28.020Z,67.90
2022-12-28T16:19:55.676Z,68.05
2022-12-28T16:22:23.250Z,68.07
2022-12-28T16:24:51.029Z,68.50
2022-12-28T16:27:18.644Z,68.66
2022-12-28T16:29:46.443Z,68.49
2022-12-28T16:32:13.904Z,68.21
2022-12-28T16:34:41.634Z,68.85
2022-12-28T16:37:10.250Z,68.65
2022-12-28T16:39:38.134Z,68.64
2022-12-28T16:42:06.575Z,68.52
2022-12-28T16:44:34.298Z,68.32
2022-12-28T16:47:01.895Z,68.50
2022-12-28T16:49:30.084Z,68.76
2022-12-28T16:51:58.297Z,68.84
2022-12-28T16:54:27.694Z,68.01
2022-12-28T16:56:55.476Z,68.70
2022-12-28T16:59:28.080Z,68.32
2022-12-28T17:01:57.015Z,68.62
2022-12-28T17:04:24.848Z,68.66
2022-12-28T17:06:52.904Z,68.23
2022-12-28T17:09:21.332Z,68.07
2022-12-28T17:11:50.209Z,68.29
2022-12-28T17:14:35.743Z,68.43
2022-12-28T17:17:06.275Z,68.40
2022-12-28T17:19:34.377Z,68.52
2022-12-28T17:22:02.247Z,67.96
2022-12-28T17:24:29.964Z,68.19
2022-12-28T17:27:01.662Z,68.08
2022-12-28T17:29:32.924Z,68.52
2022-12-28T17:32:00.546Z,68.56
2022-12-28T17:34:29.063Z,68.46
2022-12-28T17:36:56.707Z,68.03
2022-12-28T17:39:24.303Z,68.55
2022-12-28T17:41:51.996Z,68.21
2022-12-28T17:44:19.609Z,68.03
2022-12-28T17:46:47.227Z,68.70
2022-12-28T17:49:16.446Z,68.38
2022-12-28T17:51:44.618Z,68.00
2022-12-28T17:54:14.014Z,68.10
2022-12-28T17:56:42.566Z,68.30
2022-12-28T17:59:15.687Z,68.29
2022-12-28T18:01:43.579Z,68.20
2022-12-28T18:04:12.390Z,67.83
2022-12-28T18:06:40.261Z,67.98
2022-12-28T18:09:07.960Z,68.44
2022-12-28T18:11:35.738Z,68.24
2022-12-28T18:14:03.301Z,68.00
2022-12-28T18:16:30.916Z,68.05
2022-12-28T18:18:58.563Z,68.00
2022-12-28T18:21:27.080Z,68.39
2022-12-28T18:23:54.983Z,68.22
2022-12-28T18:26:27.969Z,68.63
2022-12-28T18:28:57.019Z,68.63
2022-12-28T18:31:26.911Z,68.73
2022-12-28T18:33:54.583Z,68.02
2022-12-28T18:36:22.319Z,68.44
2022-12-28T18:38:50.766Z,68.56
2022-12-28T18:41:21.296Z,68.36
2022-12-28T18:43:51.516Z,68.35
2022-12-28T18:46:19.357Z,68.64
2022-12-28T18:48:46.941Z,68.93
2022-12-28T18:51:17.519Z,68.91
2022-12-28T18:53:45.841Z,68.69
2022-12-28T18:56:15.945Z,68.93
2022-12-28T18:58:44.940Z,68.42
2022-12-28T19:01:56.047Z,68.95
2022-12-28T19:04:08.134Z,68.92
2022-12-28T19:06:37.203Z,69.12
2022-12-28T19:09:06.240Z,68.82
2022-12-28T19:11:34.626Z,69.12
2022-12-28T19:14:03.107Z,68.95
2022-12-28T19:16:32.038Z,69.07
2022-12-28T19:19:00.690Z,69.28
2022-12-28T19:21:33.535Z,69.52
2022-12-28T19:24:07.234Z,69.53
2022-12-28T19:26:35.559Z,69.16
2022-12-28T19:29:03.636Z,69.06
2022-12-28T19:31:31.918Z,69.48
2022-12-28T19:33:59.626Z,69.24
2022-12-28T19:36:27.563Z,69.40
2022-12-28T19:38:56.381Z,69.68
2022-12-28T19:41:24.689Z,69.46
2022-12-28T19:43:52.363Z,69.65
2022-12-28T19:46:22.489Z,69.54
2022-12-28T19:48:53.244Z,69.58
2022-12-28T19:51:24.544Z,69.65
2022-12-28T19:53:56.233Z,69.96
2022-12-28T19:56:23.727Z,69.66
2022-12-28T19:58:51.337Z,69.61
2022-12-28T20:01:25.859Z,69.41
2022-12-28T20:03:54.860Z,69.71
2022-12-28T20:06:26.811Z,69.36
2022-12-28T20:08:57.498Z,69.27
2022-12-28T20:11:25.543Z,69.09
2022-12-28T20:14:01.296Z,68.94
2022-12-28T20:16:30.761Z,69.28
2022-12-28T20:18:58.928Z,69.38
2022-12-28T20:21:26.799Z,69.56
2022-12-28T20:23:55.253Z,68.87
2022-12-28T20:26:28.462Z,68.90
2022-12-28T20:29:00.278Z,69.29
2022-12-28T20:31:28.364Z,69.28
2022-12-28T20:33:56.076Z,69.25
2022-12-28T20:36:26.191Z,69.50
2022-12-28T20:38:55.719Z,69.15
2022-12-28T20:41:43.561Z,69.56
2022-12-28T20:44:17.716Z,69.19
2022-12-28T20:46:45.439Z,69.09
2022-12-28T20:49:15.659Z,69.19
2022-12-28T20:51:43.647Z,69.30
2022-12-28T20:54:11.215Z,69.69
2022-12-28T20:56:41.947Z,69.76
2022-12-28T20:59:11.733Z,69.36
2022-12-28T21:01:40.472Z,69.32
2022-12-28T21:04:09.574Z,69.31
2022-12-28T21:06:37.341Z,69.49
2022-12-28T21:09:04.963Z,69.28
2022-12-28T21:11:33.408Z,69.60
2022-12-28T21:14:01.026Z,69.76
2022-12-28T21:16:28.555Z,69.28
2022-12-28T21:18:56.435Z,69.74
2022-12-28T21:21:24.146Z,69.69
2022-12-28T21:23:55.022Z,69.75
2022-12-28T21:26:22.943Z,69.70
2022-12-28T21:28:51.340Z,69.72
2022-12-28T21:31:19.084Z,69.43
2022-12-28T21:33:46.626Z,69.60
2022-12-28T21:36:15.652Z,69.26
2022-12-28T21:38:44.823Z,69.79
2022-12-28T21:41:40.464Z,69.92
2022-12-28T21:44:11.702Z,69.43
2022-12-28T21:46:39.980Z,69.29
2022-12-28T21:49:08.776Z,69.78
2022-12-28T21:51:37.575Z,69.04
2022-12-28T21:54:13.557Z,69.72
2022-12-28T21:56:42.898Z,69.17
2022-12-28T21:59:12.487Z,69.22
2022-12-28T22:02:00.369Z,69.41
2022-12-28T22:04:47.091Z,69.08
2022-12-28T22:07:16.957Z,69.34
2022-12-28T22:10:03.235Z,69.07
2022-12-28T22:12:34.879Z,69.20
2022-12-28T22:15:28.407Z,69.57
2022-12-28T22:18:02.276Z,69.05
2022-12-28T22:20:30.553Z,69.35
2022-12-28T22:23:00.517Z,69.55
2022-12-28T22:25:30.129Z,69.50
2022-12-28T22:27:58.159Z,69.18
2022-12-28T22:30:26.395Z,69.11
2022-12-28T22:32:54.118Z,68.94
2022-12-28T22:35:22.072Z,69.47
2022-12-28T22:37:50.060Z,69.24
2022-12-28T22:40:18.009Z,69.45
2022-12-28T22:42:48.528Z,69.65
2022-12-28T22:45:18.374Z,69.12
2022-12-28T22:47:46.462Z,69.29
2022-12-28T22:50:15.931Z,69.07
2022-12-28T22:52:43.562Z,69.18
2022-12-28T22:55:11.243Z,69.06
2022-12-28T22:57:38.915Z,69.12
2022-12-28T23:00:10.019Z,69.29
2022-12-28T23:02:37.861Z,69.35
2022-12-28T23:05:05.992Z,69.15
2022-12-28T23:07:34.757Z,68.97
2022-12-28T23:10:02.480Z,69.22
2022-12-28T23:12:30.932Z,68.72
2022-12-28T23:15:18.689Z,68.95
2022-12-28T23:17:49.765Z,68.86
2022-12-28T23:20:36.580Z,69.11
2022-12-28T23:23:22.794Z,69.33
2022-12-28T23:26:08.971Z,69.01
2022-12-28T23:28:36.527Z,69.25
2022-12-28T23:31:04.205Z,68.83
2022-12-28T23:33:31.847Z,69.32
2022-12-28T23:36:03.926Z,69.55
2022-12-28T23:38:32.868Z,68.93
2022-12-28T23:41:23.936Z,69.03
2022-12-28T23:43:51.616Z,68.96
2022-12-28T23:46:19.242Z,69.23
2022-12-28T23:48:46.811Z,69.36
2022-12-28T23:51:14.866Z,69.50
2022-12-28T23:53:42.501Z,69.48
2022-12-28T23:56:10.023Z,69.35
2022-12-28T23:58:37.550Z,69.04
